Time;durP1;ratioP1;P1;durP2;ratioP2;P2;SDS_P1;SDS_P2;PMS_P1;PMS_P2;Temp;Humidity;BMP_temperature;BMP_pressure;BME280_temperature;BME280_humidity;BME280_pressure;Samples;Min_cycle;Max_cycle;Signal;HPM_P1;HPM_P2
2022/10/14 00:01:49;;;;;;;;;;;;;;;15.02;70.62;100995.50;4972734;28;120139;-73
2022/10/14 00:04:14;;;;;;;;;;;;;;;14.95;70.38;100987.59;4949525;28;119665;-75
2022/10/14 00:06:40;;;;;;;;;;;;;;;14.90;70.39;100994.53;4967361;28;119305;-75
2022/10/14 00:09:07;;;;;;;;;;;;;;;14.83;70.17;100988.59;4968369;28;120207;-73
2022/10/14 00:11:34;;;;;;;;;;;;;;;14.76;70.36;100986.97;4965478;28;121142;-73
2022/10/14 00:14:02;;;;;;;;;;;;;;;14.72;70.22;100983.63;4957394;28;119663;-73
2022/10/14 00:16:31;;;;;;;;;;;;;;;14.70;70.86;100986.09;4969087;28;120006;-73
2022/10/14 00:18:57;;;;;;;;;;;;;;;14.66;70.49;100985.50;4967374;28;120855;-73
2022/10/14 00:21:24;;;;;;;;;;;;;;;14.64;70.33;100987.97;4971690;28;119569;-74
2022/10/14 00:23:50;;;;;;;;;;;;;;;14.60;70.67;100985.38;4968477;28;120010;-73
2022/10/14 00:26:15;;;;;;;;;;;;;;;14.58;70.72;100987.84;4979933;28;119923;-75
2022/10/14 00:28:42;;;;;;;;;;;;;;;14.57;70.55;100991.84;4966771;28;119904;-75
2022/10/14 00:31:08;;;;;;;;;;;;;;;14.54;70.68;100987.28;4971785;28;121437;-73
2022/10/14 00:33:33;;;;;;;;;;;;;;;14.51;70.52;100990.22;4951151;28;119913;-73
2022/10/14 00:36:01;;;;;;;;;;;;;;;14.47;70.16;100990.41;4951384;28;120090;-75
2022/10/14 00:38:32;;;;;;;;;;;;;;;14.42;70.35;100989.00;4976998;28;120407;-73
2022/10/14 00:40:58;;;;;;;;;;;;;;;14.37;70.32;100988.88;4956531;28;119453;-73
2022/10/14 00:43:24;;;;;;;;;;;;;;;14.33;70.39;100991.06;4949532;28;119917;-73
2022/10/14 00:45:50;;;;;;;;;;;;;;;14.28;70.58;100994.47;4964400;28;119662;-73
2022/10/14 00:48:17;;;;;;;;;;;;;;;14.24;70.32;100996.63;4968623;28;119895;-73
2022/10/14 00:50:45;;;;;;;;;;;;;;;14.23;70.64;100995.88;4965703;28;120228;-73
2022/10/14 00:53:12;;;;;;;;;;;;;;;14.19;70.53;100986.22;4968181;28;119873;-73
2022/10/14 00:55:41;;;;;;;;;;;;;;;14.17;70.39;100989.44;4938062;28;121513;-75
2022/10/14 00:58:09;;;;;;;;;;;;;;;14.16;70.26;100987.91;4956100;28;121285;-75
2022/10/14 01:01:15;;;;;;;;;;;;;;;14.13;70.38;100995.13;4907795;28;119719;-73
2022/10/14 01:03:41;;;;;;;;;;;;;;;14.10;70.43;100993.31;4930021;28;119771;-72
2022/10/14 01:06:12;;;;;;;;;;;;;;;14.09;70.45;100993.78;4927961;28;119536;-73
2022/10/14 01:08:57;;;;;;;;;;;;;;;14.06;70.02;100992.72;4912513;28;120437;-73
2022/10/14 01:11:28;;;;;;;;;;;;;;;14.05;70.23;100996.72;4929659;28;120470;-73
2022/10/14 01:14:01;;;;;;;;;;;;;;;14.02;70.34;100989.38;4942679;28;119639;-73
2022/10/14 01:16:45;;;;;;;;;;;;;;;13.99;70.16;100984.03;4917284;28;120077;-73
2022/10/14 01:19:31;;;;;;;;;;;;;;;13.95;70.44;100983.41;4914736;28;119949;-73
2022/10/14 01:22:04;;;;;;;;;;;;;;;13.91;69.92;100985.56;4933460;28;120166;-73
2022/10/14 01:24:39;;;;;;;;;;;;;;;13.87;70.14;100977.47;4934482;28;119843;-73
2022/10/14 01:27:07;;;;;;;;;;;;;;;13.86;69.96;100978.72;4955187;28;119954;-73
2022/10/14 01:29:42;;;;;;;;;;;;;;;13.83;70.24;100985.16;4969903;28;119590;-73
2022/10/14 01:32:28;;;;;;;;;;;;;;;13.80;69.73;100988.84;4974636;28;119241;-75
2022/10/14 01:35:05;;;;;;;;;;;;;;;13.75;70.04;100984.72;4984752;28;119682;-73
2022/10/14 01:37:33;;;;;;;;;;;;;;;13.74;70.03;100979.69;4965932;28;119647;-73
2022/10/14 01:40:02;;;;;;;;;;;;;;;13.72;70.29;100980.16;4951735;28;121218;-75
2022/10/14 01:42:32;;;;;;;;;;;;;;;13.73;70.07;100986.44;4957128;28;119566;-73
2022/10/14 01:44:59;;;;;;;;;;;;;;;13.74;70.02;100976.94;4959779;28;119546;-75
2022/10/14 01:47:27;;;;;;;;;;;;;;;13.76;70.17;100983.50;4971404;28;119899;-75
2022/10/14 01:49:57;;;;;;;;;;;;;;;13.76;70.41;100979.97;4953980;28;119755;-75
2022/10/14 01:52:27;;;;;;;;;;;;;;;13.74;70.04;100985.19;4966892;28;119790;-72
2022/10/14 01:54:55;;;;;;;;;;;;;;;13.72;70.00;100984.88;4976489;28;119865;-75
2022/10/14 01:57:26;;;;;;;;;;;;;;;13.71;70.12;100986.09;4950566;28;119706;-75
2022/10/14 01:59:52;;;;;;;;;;;;;;;13.69;70.07;100980.28;4951671;28;119865;-75
2022/10/14 02:02:18;;;;;;;;;;;;;;;13.67;70.24;100978.00;4982726;28;120148;-75
2022/10/14 02:04:43;;;;;;;;;;;;;;;13.68;69.58;100981.53;4967486;28;120134;-75
2022/10/14 02:07:16;;;;;;;;;;;;;;;13.68;69.88;100976.00;4985231;28;119989;-75
2022/10/14 02:10:00;;;;;;;;;;;;;;;13.64;69.81;100983.69;4950715;28;119908;-75
2022/10/14 02:12:27;;;;;;;;;;;;;;;13.60;69.94;100978.34;4974565;28;119423;-75
2022/10/14 02:14:55;;;;;;;;;;;;;;;13.57;69.84;100975.75;4959318;28;119823;-75
2022/10/14 02:17:31;;;;;;;;;;;;;;;13.51;69.93;100973.63;4979042;28;119371;-75
2022/10/14 02:20:24;;;;;;;;;;;;;;;13.46;69.78;100979.75;4970072;28;120814;-75
2022/10/14 02:23:07;;;;;;;;;;;;;;;13.42;69.79;100981.13;4975968;28;119576;-75
2022/10/14 02:25:34;;;;;;;;;;;;;;;13.37;69.56;100979.00;4956405;28;121511;-75
2022/10/14 02:28:02;;;;;;;;;;;;;;;13.34;69.49;100968.91;4967418;28;119888;-75
2022/10/14 02:30:30;;;;;;;;;;;;;;;13.31;69.57;100970.59;4936214;28;119768;-75
2022/10/14 02:32:57;;;;;;;;;;;;;;;13.28;69.19;100974.28;4957328;28;119907;-75
2022/10/14 02:35:23;;;;;;;;;;;;;;;13.25;69.52;100972.47;4990457;28;120050;-75
2022/10/14 02:37:50;;;;;;;;;;;;;;;13.19;69.48;100969.53;4953186;28;120158;-75
2022/10/14 02:40:22;;;;;;;;;;;;;;;13.13;69.17;100973.34;4948981;28;119497;-74
2022/10/14 02:42:48;;;;;;;;;;;;;;;13.07;69.54;100978.72;4936396;28;120105;-75
2022/10/14 02:45:14;;;;;;;;;;;;;;;13.04;69.47;100979.63;4969522;28;120007;-75
2022/10/14 02:47:40;;;;;;;;;;;;;;;13.00;69.16;100972.72;4955745;28;119535;-75
2022/10/14 02:50:06;;;;;;;;;;;;;;;12.99;69.51;100971.19;4955608;28;120375;-75
2022/10/14 02:52:32;;;;;;;;;;;;;;;12.98;69.79;100975.94;4967944;28;119849;-75
2022/10/14 02:54:57;;;;;;;;;;;;;;;12.96;69.30;100972.13;4971224;28;121580;-75
2022/10/14 02:57:23;;;;;;;;;;;;;;;12.93;69.31;100968.31;4975308;28;119502;-74
2022/10/14 02:59:48;;;;;;;;;;;;;;;12.90;69.75;100970.00;4967358;28;119491;-75
2022/10/14 03:02:14;;;;;;;;;;;;;;;12.87;69.73;100964.63;4973895;28;119901;-75
2022/10/14 03:04:40;;;;;;;;;;;;;;;12.85;69.77;100967.09;4944265;28;119942;-75
2022/10/14 03:07:07;;;;;;;;;;;;;;;12.83;69.34;100969.53;4968268;28;119862;-75
2022/10/14 03:09:40;;;;;;;;;;;;;;;12.81;69.69;100964.50;4939689;28;119658;-75
2022/10/14 03:12:26;;;;;;;;;;;;;;;12.77;69.71;100955.59;4957825;28;119532;-75
2022/10/14 03:14:54;;;;;;;;;;;;;;;12.76;69.88;100959.56;4968356;28;119408;-75
2022/10/14 03:17:21;;;;;;;;;;;;;;;12.76;69.43;100961.56;4964299;28;119721;-75
2022/10/14 03:19:48;;;;;;;;;;;;;;;12.74;69.39;100962.03;4943426;28;121747;-75
2022/10/14 03:22:15;;;;;;;;;;;;;;;12.71;69.90;100962.19;4941180;28;119802;-74
2022/10/14 03:24:40;;;;;;;;;;;;;;;12.69;69.92;100959.88;4959922;28;119897;-75
2022/10/14 03:27:34;;;;;;;;;;;;;;;12.66;69.53;100960.03;4937437;28;121423;-75
2022/10/14 03:30:05;;;;;;;;;;;;;;;12.63;69.67;100971.97;4957107;28;119825;-75
2022/10/14 03:32:34;;;;;;;;;;;;;;;12.60;69.48;100957.13;4942762;28;120201;-75
2022/10/14 03:35:21;;;;;;;;;;;;;;;12.57;69.56;100961.56;4951568;28;120423;-75
2022/10/14 03:37:51;;;;;;;;;;;;;;;12.57;69.69;100969.06;4987067;28;119438;-75
2022/10/14 03:40:20;;;;;;;;;;;;;;;12.60;69.58;100973.66;4976064;28;121307;-75
2022/10/14 03:42:45;;;;;;;;;;;;;;;12.61;70.10;100966.91;4973052;28;119886;-75
2022/10/14 03:45:13;;;;;;;;;;;;;;;12.61;69.97;100969.69;4948416;28;119437;-75
2022/10/14 03:47:39;;;;;;;;;;;;;;;12.62;69.81;100959.44;4949904;28;121109;-75
2022/10/14 03:50:05;;;;;;;;;;;;;;;12.63;70.07;100963.72;4949719;28;119213;-75
2022/10/14 03:52:45;;;;;;;;;;;;;;;12.62;70.19;100960.19;4949729;28;119830;-75
2022/10/14 03:55:19;;;;;;;;;;;;;;;12.63;69.86;100949.94;4953083;28;120798;-75
2022/10/14 03:57:46;;;;;;;;;;;;;;;12.60;69.92;100957.13;4985834;28;119817;-75
2022/10/14 04:00:13;;;;;;;;;;;;;;;12.57;70.09;100960.81;4962836;28;119620;-75
2022/10/14 04:02:41;;;;;;;;;;;;;;;12.57;69.75;100961.56;4972484;28;120990;-75
2022/10/14 04:05:18;;;;;;;;;;;;;;;12.59;70.27;100955.59;4941992;28;120486;-75
2022/10/14 04:08:01;;;;;;;;;;;;;;;12.62;70.29;100962.94;4952622;28;120191;-75
2022/10/14 04:10:27;;;;;;;;;;;;;;;12.63;70.00;100961.72;4969403;28;119416;-75
2022/10/14 04:12:54;;;;;;;;;;;;;;;12.63;70.19;100956.22;4954107;28;119964;-75
2022/10/14 04:15:26;;;;;;;;;;;;;;;12.62;70.07;100956.69;4953986;28;120180;-75
2022/10/14 04:18:18;;;;;;;;;;;;;;;12.56;69.77;100949.03;4971432;28;119410;-75
2022/10/14 04:20:51;;;;;;;;;;;;;;;12.56;69.84;100945.53;4953545;28;119859;-74
2022/10/14 04:23:19;;;;;;;;;;;;;;;12.57;70.14;100947.03;4967909;28;120524;-75
2022/10/14 04:25:49;;;;;;;;;;;;;;;12.54;69.74;100945.22;4944585;28;119930;-75
2022/10/14 04:28:15;;;;;;;;;;;;;;;12.52;69.83;100944.88;4951162;28;119863;-74
2022/10/14 04:30:48;;;;;;;;;;;;;;;12.51;69.67;100941.38;4955761;28;119588;-75
2022/10/14 04:33:19;;;;;;;;;;;;;;;12.52;69.44;100947.63;4954763;28;119757;-75
2022/10/14 04:35:47;;;;;;;;;;;;;;;12.52;69.96;100942.91;4950893;28;119329;-75
2022/10/14 04:38:20;;;;;;;;;;;;;;;12.54;70.17;100942.47;4956674;28;119401;-75
2022/10/14 04:40:52;;;;;;;;;;;;;;;12.55;69.83;100944.00;4961388;28;119549;-75
2022/10/14 04:43:18;;;;;;;;;;;;;;;12.57;70.00;100938.78;4973957;28;119447;-75
2022/10/14 04:45:45;;;;;;;;;;;;;;;12.60;70.45;100941.38;4951231;28;119655;-75
2022/10/14 04:48:14;;;;;;;;;;;;;;;12.63;69.99;100936.97;4952226;28;119553;-75
2022/10/14 04:50:42;;;;;;;;;;;;;;;12.67;69.69;100929.31;4935736;28;119585;-75
2022/10/14 04:53:26;;;;;;;;;;;;;;;12.70;70.25;100930.38;4971195;28;119453;-75
2022/10/14 04:56:04;;;;;;;;;;;;;;;12.73;69.78;100932.97;4940296;28;119706;-75
2022/10/14 04:58:35;;;;;;;;;;;;;;;12.76;70.26;100932.06;4977781;28;119550;-75
2022/10/14 05:01:00;;;;;;;;;;;;;;;12.79;70.27;100927.63;4953292;28;119533;-75
2022/10/14 05:03:33;;;;;;;;;;;;;;;12.83;70.17;100922.75;4953761;28;120119;-75
2022/10/14 05:05:58;;;;;;;;;;;;;;;12.86;70.16;100919.81;4949154;28;119657;-75
2022/10/14 05:08:24;;;;;;;;;;;;;;;12.87;70.25;100921.34;4938991;28;119344;-75
2022/10/14 05:10:53;;;;;;;;;;;;;;;12.91;69.84;100921.19;4951466;28;119476;-75
2022/10/14 05:13:33;;;;;;;;;;;;;;;12.90;69.86;100914.16;4950373;28;119491;-75
2022/10/14 05:16:03;;;;;;;;;;;;;;;12.90;69.66;100919.66;4966369;28;119855;-74
2022/10/14 05:18:30;;;;;;;;;;;;;;;12.91;69.80;100921.97;4970507;28;119386;-72
2022/10/14 05:21:00;;;;;;;;;;;;;;;12.90;69.85;100923.19;4956115;28;119769;-75
2022/10/14 05:23:38;;;;;;;;;;;;;;;12.82;70.03;100896.44;4949540;28;119796;-75
2022/10/14 05:26:04;;;;;;;;;;;;;;;12.94;69.78;100925.00;4950989;28;120041;-75
2022/10/14 05:28:30;;;;;;;;;;;;;;;12.97;69.86;100924.09;4971386;28;119373;-75
2022/10/14 05:30:55;;;;;;;;;;;;;;;12.98;69.56;100914.59;4963605;28;119943;-75
2022/10/14 05:33:21;;;;;;;;;;;;;;;13.01;69.69;100916.44;4955012;28;120530;-75
2022/10/14 05:35:47;;;;;;;;;;;;;;;13.03;69.95;100914.00;4941389;28;120783;-75
2022/10/14 05:38:13;;;;;;;;;;;;;;;13.05;70.13;100920.56;4969782;28;120089;-75
2022/10/14 05:40:44;;;;;;;;;;;;;;;13.08;70.22;100918.88;4949422;28;119855;-75
2022/10/14 05:43:10;;;;;;;;;;;;;;;13.14;70.60;100917.03;4955189;28;119872;-75
2022/10/14 05:45:40;;;;;;;;;;;;;;;13.20;70.25;100926.22;4963862;28;119802;-75
2022/10/14 05:48:07;;;;;;;;;;;;;;;13.23;70.23;100919.03;4954334;28;120022;-75
2022/10/14 05:50:36;;;;;;;;;;;;;;;13.27;70.73;100920.41;4933698;28;120663;-75
2022/10/14 05:53:06;;;;;;;;;;;;;;;13.33;70.91;100915.78;4962330;28;119498;-75
2022/10/14 05:55:40;;;;;;;;;;;;;;;13.39;71.20;100913.94;4945948;28;121469;-75
2022/10/14 05:58:06;;;;;;;;;;;;;;;13.45;70.87;100916.81;4951239;28;120135;-75
2022/10/14 06:00:37;;;;;;;;;;;;;;;13.51;71.22;100917.75;4947635;28;119935;-75
2022/10/14 06:03:09;;;;;;;;;;;;;;;13.57;71.10;100912.34;4962775;28;119914;-75
2022/10/14 06:05:36;;;;;;;;;;;;;;;13.63;71.58;100911.25;4968212;28;119642;-75
2022/10/14 06:08:04;;;;;;;;;;;;;;;13.68;71.17;100909.84;4974782;28;120013;-75
2022/10/14 06:10:50;;;;;;;;;;;;;;;13.73;70.86;100906.47;4959945;28;119892;-75
2022/10/14 06:13:42;;;;;;;;;;;;;;;13.78;71.05;100911.34;4965764;28;119692;-75
2022/10/14 06:16:09;;;;;;;;;;;;;;;13.83;71.25;100910.72;4959110;28;119900;-74
2022/10/14 06:18:34;;;;;;;;;;;;;;;13.87;71.43;100905.78;4970198;28;119961;-73
2022/10/14 06:21:00;;;;;;;;;;;;;;;13.93;71.26;100912.19;4951611;28;119629;-73
2022/10/14 06:23:31;;;;;;;;;;;;;;;13.99;71.33;100910.34;4964248;28;120516;-73
2022/10/14 06:25:57;;;;;;;;;;;;;;;14.03;71.58;100913.69;4981613;28;119535;-73
2022/10/14 06:28:23;;;;;;;;;;;;;;;14.10;71.93;100913.31;4968866;28;119887;-73
2022/10/14 06:30:52;;;;;;;;;;;;;;;14.16;71.70;100918.94;4969177;28;120045;-73
2022/10/14 06:33:18;;;;;;;;;;;;;;;14.25;71.90;100915.38;4964285;28;119818;-73
2022/10/14 06:35:44;;;;;;;;;;;;;;;14.30;71.51;100909.22;4970123;28;119563;-73
2022/10/14 06:38:10;;;;;;;;;;;;;;;14.35;71.61;100917.59;4956903;28;121736;-74
2022/10/14 06:40:58;;;;;;;;;;;;;;;14.41;72.20;100915.72;4959796;28;120428;-73
2022/10/14 06:43:24;;;;;;;;;;;;;;;14.45;71.80;100910.06;4969042;28;119478;-73
2022/10/14 06:45:49;;;;;;;;;;;;;;;14.50;72.14;100903.88;4972281;28;119849;-74
2022/10/14 06:48:15;;;;;;;;;;;;;;;14.56;72.02;100913.03;4969703;28;119821;-73
2022/10/14 06:50:40;;;;;;;;;;;;;;;14.62;72.06;100911.13;4955647;28;121621;-73
2022/10/14 06:53:06;;;;;;;;;;;;;;;14.66;72.14;100905.44;4973798;28;119823;-73
2022/10/14 06:55:32;;;;;;;;;;;;;;;14.70;72.59;100903.28;4952395;28;119858;-73
2022/10/14 06:57:58;;;;;;;;;;;;;;;14.76;71.97;100911.66;4968193;28;119924;-74
2022/10/14 07:00:24;;;;;;;;;;;;;;;14.82;72.24;100909.75;4976460;28;120156;-73
2022/10/14 07:02:56;;;;;;;;;;;;;;;14.84;72.29;100907.28;4952257;28;119734;-73
2022/10/14 07:05:25;;;;;;;;;;;;;;;14.88;72.36;100903.09;4972217;28;119911;-73
2022/10/14 07:07:51;;;;;;;;;;;;;;;14.93;72.25;100905.22;4970809;28;119817;-73
2022/10/14 07:10:16;;;;;;;;;;;;;;;14.99;72.27;100908.06;4971050;28;119842;-73
2022/10/14 07:12:42;;;;;;;;;;;;;;;15.03;72.55;100908.63;4954666;28;120277;-73
2022/10/14 07:15:08;;;;;;;;;;;;;;;15.08;72.25;100905.19;4953957;28;119690;-73
2022/10/14 07:17:33;;;;;;;;;;;;;;;15.13;72.20;100907.28;4968641;28;119481;-74
2022/10/14 07:19:59;;;;;;;;;;;;;;;15.16;72.37;100911.91;4976781;28;119379;-73
2022/10/14 07:22:25;;;;;;;;;;;;;;;15.18;72.41;100909.41;4952603;28;120003;-73
2022/10/14 07:24:50;;;;;;;;;;;;;;;15.23;72.31;100908.75;4968543;28;119829;-73
2022/10/14 07:27:17;;;;;;;;;;;;;;;15.26;72.17;100907.78;4990253;28;120092;-73
2022/10/14 07:29:42;;;;;;;;;;;;;;;15.34;72.31;100911.69;4972343;28;119854;-73
2022/10/14 07:32:08;;;;;;;;;;;;;;;15.38;72.10;100916.25;4972145;28;120088;-74
2022/10/14 07:34:51;;;;;;;;;;;;;;;15.43;72.47;100918.38;4956649;28;119470;-74
2022/10/14 07:37:16;;;;;;;;;;;;;;;15.46;72.05;100911.88;4950281;28;119739;-73
2022/10/14 07:39:42;;;;;;;;;;;;;;;15.50;72.25;100913.19;4972396;28;119901;-74
2022/10/14 07:42:07;;;;;;;;;;;;;;;15.55;71.86;100918.03;4974293;28;119892;-74
2022/10/14 07:44:33;;;;;;;;;;;;;;;15.56;71.80;100918.81;4951337;28;119948;-73
2022/10/14 07:47:00;;;;;;;;;;;;;;;15.57;71.84;100917.56;4949682;28;120196;-73
2022/10/14 07:49:26;;;;;;;;;;;;;;;15.57;71.93;100925.84;4965873;28;119940;-73
2022/10/14 07:51:51;;;;;;;;;;;;;;;15.60;71.74;100927.69;4965580;28;119480;-74
2022/10/14 07:54:18;;;;;;;;;;;;;;;15.63;71.91;100926.75;4966589;28;119976;-73
2022/10/14 07:56:44;;;;;;;;;;;;;;;15.65;71.96;100933.34;4964757;28;120368;-73
2022/10/14 07:59:11;;;;;;;;;;;;;;;15.68;71.71;100926.06;4967692;28;120026;-74
2022/10/14 08:01:36;;;;;;;;;;;;;;;15.71;71.57;100927.88;4963277;28;120297;-73
2022/10/14 08:04:03;;;;;;;;;;;;;;;15.74;71.83;100926.91;4969081;28;119906;-73
2022/10/14 08:06:28;;;;;;;;;;;;;;;15.79;71.70;100931.00;4965282;28;119614;-73
2022/10/14 08:08:54;;;;;;;;;;;;;;;15.82;72.02;100921.75;4963320;28;120460;-73
2022/10/14 08:11:21;;;;;;;;;;;;;;;15.86;71.99;100925.09;4948173;28;120067;-73
2022/10/14 08:13:46;;;;;;;;;;;;;;;15.88;71.79;100925.38;4949516;28;120170;-73
2022/10/14 08:16:12;;;;;;;;;;;;;;;15.92;71.71;100926.69;4961071;28;120834;-74
2022/10/14 08:18:37;;;;;;;;;;;;;;;15.95;71.68;100933.25;4964799;28;119871;-73
2022/10/14 08:21:03;;;;;;;;;;;;;;;16.00;71.55;100931.81;4965925;28;119912;-74
2022/10/14 08:23:29;;;;;;;;;;;;;;;16.01;71.30;100925.03;4963932;28;120212;-73
2022/10/14 08:25:54;;;;;;;;;;;;;;;16.03;71.56;100928.84;4966408;28;120037;-73
2022/10/14 08:28:20;;;;;;;;;;;;;;;16.06;71.42;100927.88;4963655;28;121015;-73
2022/10/14 08:30:47;;;;;;;;;;;;;;;16.10;71.40;100925.69;4962341;28;119613;-73
2022/10/14 08:33:13;;;;;;;;;;;;;;;16.13;71.26;100926.72;4965926;28;120001;-73
2022/10/14 08:35:38;;;;;;;;;;;;;;;16.16;71.33;100914.69;4964537;28;119772;-73
2022/10/14 08:38:10;;;;;;;;;;;;;;;16.17;71.16;100922.50;4966811;28;119560;-73
2022/10/14 08:40:48;;;;;;;;;;;;;;;16.19;71.28;100917.25;4964729;28;120071;-74
2022/10/14 08:43:35;;;;;;;;;;;;;;;16.21;71.38;100911.97;4961671;28;120447;-74
2022/10/14 08:46:08;;;;;;;;;;;;;;;16.26;71.15;100913.31;4960173;28;119487;-74
2022/10/14 08:48:34;;;;;;;;;;;;;;;16.28;71.20;100921.88;4966502;28;119607;-73
2022/10/14 08:51:11;;;;;;;;;;;;;;;16.27;70.94;100917.59;4962591;28;120080;-73
2022/10/14 08:53:40;;;;;;;;;;;;;;;16.31;71.13;100923.66;4960509;28;119989;-73
2022/10/14 08:56:06;;;;;;;;;;;;;;;16.35;70.94;100918.72;4958358;28;119945;-73
2022/10/14 08:58:48;;;;;;;;;;;;;;;16.37;70.81;100912.69;4960702;28;123221;-73
2022/10/14 09:01:14;;;;;;;;;;;;;;;16.41;71.00;100921.53;4961282;28;119614;-73
2022/10/14 09:03:40;;;;;;;;;;;;;;;16.48;70.95;100910.03;4958101;28;121928;-73
2022/10/14 09:06:10;;;;;;;;;;;;;;;16.61;71.31;100916.00;4946249;28;120186;-73
2022/10/14 09:08:41;;;;;;;;;;;;;;;16.73;71.05;100917.66;4945000;28;120596;-73
2022/10/14 09:11:11;;;;;;;;;;;;;;;16.83;70.87;100919.03;4948312;28;120879;-73
2022/10/14 09:13:41;;;;;;;;;;;;;;;16.93;70.38;100916.88;4945730;28;120930;-73
2022/10/14 09:16:21;;;;;;;;;;;;;;;17.01;70.19;100909.63;4961449;28;120034;-73
2022/10/14 09:18:52;;;;;;;;;;;;;;;17.02;69.76;100908.38;4962471;28;119560;-74
2022/10/14 09:21:33;;;;;;;;;;;;;;;16.93;68.84;100897.47;4961679;28;119953;-73
2022/10/14 09:24:14;;;;;;;;;;;;;;;16.84;69.03;100895.63;4963935;28;119756;-73
2022/10/14 09:26:50;;;;;;;;;;;;;;;16.79;69.25;100896.31;4962998;28;119887;-74
2022/10/14 09:29:22;;;;;;;;;;;;;;;16.79;69.62;100896.31;4959449;28;119655;-73
2022/10/14 09:31:48;;;;;;;;;;;;;;;16.85;69.68;100899.16;4966720;28;120263;-73
2022/10/14 09:34:24;;;;;;;;;;;;;;;16.93;69.61;100894.69;4946791;28;120022;-74
2022/10/14 09:36:51;;;;;;;;;;;;;;;16.98;69.25;100893.22;4946880;28;121945;-73
2022/10/14 09:39:16;;;;;;;;;;;;;;;16.99;69.04;100889.19;4963669;28;120204;-73
2022/10/14 09:41:45;;;;;;;;;;;;;;;16.94;68.65;100895.47;4947555;28;120509;-73
2022/10/14 09:44:21;;;;;;;;;;;;;;;16.89;68.73;100905.25;4946991;28;121593;-73
2022/10/14 09:46:48;;;;;;;;;;;;;;;16.93;69.10;100896.72;4966049;28;119608;-74
2022/10/14 09:49:16;;;;;;;;;;;;;;;16.99;68.93;100892.72;4967072;28;119903;-74
2022/10/14 09:51:44;;;;;;;;;;;;;;;17.05;68.85;100899.13;4962883;28;120565;-73
2022/10/14 09:54:20;;;;;;;;;;;;;;;17.17;69.13;100895.19;4971003;28;119615;-73
2022/10/14 09:56:48;;;;;;;;;;;;;;;17.26;69.08;100899.00;4965940;28;120013;-73
2022/10/14 09:59:18;;;;;;;;;;;;;;;17.27;68.51;100898.53;4949438;28;120067;-73
2022/10/14 10:01:56;;;;;;;;;;;;;;;17.25;68.34;100895.47;4966228;28;119967;-73
2022/10/14 10:04:23;;;;;;;;;;;;;;;17.26;68.46;100897.00;4933838;28;121967;-73
2022/10/14 10:06:53;;;;;;;;;;;;;;;17.25;68.30;100898.25;4982846;28;120696;-74
2022/10/14 10:09:34;;;;;;;;;;;;;;;17.22;68.09;100895.72;4978982;28;119929;-73
2022/10/14 10:12:20;;;;;;;;;;;;;;;17.20;68.10;100887.88;4965709;28;120014;-74
2022/10/14 10:14:54;;;;;;;;;;;;;;;17.25;68.20;100891.94;4963620;28;120415;-73
2022/10/14 10:17:20;;;;;;;;;;;;;;;17.31;68.21;100873.38;4984925;28;120691;-73
2022/10/14 10:19:50;;;;;;;;;;;;;;;17.40;68.49;100873.19;4967683;28;119611;-73
2022/10/14 10:22:18;;;;;;;;;;;;;;;17.52;68.44;100872.00;4966011;28;120066;-74
2022/10/14 10:24:47;;;;;;;;;;;;;;;17.60;67.89;100867.53;4966162;28;120320;-73
2022/10/14 10:27:24;;;;;;;;;;;;;;;17.64;67.77;100873.59;4964895;28;119845;-74
2022/10/14 10:29:50;;;;;;;;;;;;;;;17.75;68.08;100870.19;4982141;28;119705;-73
2022/10/14 10:32:29;;;;;;;;;;;;;;;17.86;67.74;100866.69;4964465;28;119609;-74
2022/10/14 10:34:55;;;;;;;;;;;;;;;17.94;67.52;100867.72;4965873;28;119771;-74
2022/10/14 10:37:23;;;;;;;;;;;;;;;17.96;67.34;100868.75;4948726;28;119581;-73
2022/10/14 10:39:49;;;;;;;;;;;;;;;17.97;67.32;100870.28;4984636;28;120078;-74
2022/10/14 10:42:24;;;;;;;;;;;;;;;17.99;66.92;100876.13;4945777;28;120305;-73
2022/10/14 10:44:57;;;;;;;;;;;;;;;18.00;66.78;100871.31;4960408;28;119842;-74
2022/10/14 10:47:26;;;;;;;;;;;;;;;18.01;66.98;100867.28;4946924;28;119587;-74
2022/10/14 10:49:58;;;;;;;;;;;;;;;18.06;67.12;100872.09;4982817;28;120226;-74
2022/10/14 10:52:35;;;;;;;;;;;;;;;18.09;66.94;100868.31;4963474;28;119997;-73
2022/10/14 10:55:04;;;;;;;;;;;;;;;18.12;66.58;100864.53;4965334;28;120112;-74
2022/10/14 10:57:48;;;;;;;;;;;;;;;18.15;66.26;100849.66;4948748;28;121239;-74
2022/10/14 11:00:19;;;;;;;;;;;;;;;18.14;66.27;100842.59;4961681;28;119871;-73
2022/10/14 11:02:54;;;;;;;;;;;;;;;18.08;65.81;100850.16;4965721;28;119638;-73
2022/10/14 11:05:37;;;;;;;;;;;;;;;18.09;66.14;100857.22;4964164;28;119689;-74
2022/10/14 11:14:01;;;;;;;;;;;;;;;18.29;65.87;100848.72;4947970;28;121007;-73
2022/10/14 11:16:35;;;;;;;;;;;;;;;18.30;65.23;100844.69;4962327;28;119709;-73
2022/10/14 11:19:19;;;;;;;;;;;;;;;18.27;65.23;100845.69;4965661;28;119645;-73
2022/10/14 11:21:44;;;;;;;;;;;;;;;18.20;64.97;100835.03;4966138;28;119829;-74
2022/10/14 11:24:39;;;;;;;;;;;;;;;18.12;65.13;100836.78;4951909;28;119504;-73
2022/10/14 11:27:08;;;;;;;;;;;;;;;18.05;65.29;100832.47;4984807;28;120658;-74
2022/10/14 11:29:48;;;;;;;;;;;;;;;18.14;65.83;100828.72;4965454;28;119543;-74
2022/10/14 11:32:23;;;;;;;;;;;;;;;18.21;65.21;100825.44;4946714;28;119600;-73
2022/10/14 11:35:04;;;;;;;;;;;;;;;18.20;64.73;100818.38;4965117;28;119569;-74
2022/10/14 11:37:48;;;;;;;;;;;;;;;18.14;64.80;100814.09;4964901;28;119546;-73
2022/10/14 11:40:16;;;;;;;;;;;;;;;18.06;64.82;100808.25;4965276;28;119887;-73
2022/10/14 11:42:51;;;;;;;;;;;;;;;18.06;65.38;100811.78;4946322;28;120973;-73
2022/10/14 11:45:35;;;;;;;;;;;;;;;18.15;65.51;100807.28;4963914;28;120187;-74
2022/10/14 11:48:21;;;;;;;;;;;;;;;18.19;64.96;100811.31;4983089;28;120060;-74
2022/10/14 11:50:50;;;;;;;;;;;;;;;18.22;64.58;100810.34;4965833;28;120001;-73
2022/10/14 11:53:23;;;;;;;;;;;;;;;18.25;64.76;100803.03;4963543;28;119932;-73
2022/10/14 11:55:58;;;;;;;;;;;;;;;18.32;64.80;100806.06;4965644;28;119757;-73
2022/10/14 11:58:25;;;;;;;;;;;;;;;18.33;64.54;100804.03;4966203;28;120022;-74
2022/10/14 12:01:11;;;;;;;;;;;;;;;18.31;64.62;100804.56;4931971;28;120014;-74
2022/10/14 12:03:58;;;;;;;;;;;;;;;18.25;64.51;100808.56;4962996;28;120174;-74
2022/10/14 12:06:29;;;;;;;;;;;;;;;18.20;64.33;100803.75;4964519;28;119580;-73
2022/10/14 12:09:00;;;;;;;;;;;;;;;18.20;64.45;100800.97;4965541;28;119971;-74
2022/10/14 12:11:26;;;;;;;;;;;;;;;18.23;64.71;100794.44;4967729;28;120625;-74
2022/10/14 12:13:56;;;;;;;;;;;;;;;18.29;64.67;100786.88;4978890;28;119648;-74
2022/10/14 12:16:22;;;;;;;;;;;;;;;18.37;64.75;100793.44;4946587;28;120871;-73
2022/10/14 12:18:51;;;;;;;;;;;;;;;18.40;63.71;100784.88;4963825;28;119920;-74
2022/10/14 12:21:17;;;;;;;;;;;;;;;18.44;63.54;100787.41;4948484;28;119632;-73
2022/10/14 12:23:46;;;;;;;;;;;;;;;18.53;63.10;100778.09;4966919;28;120053;-73
2022/10/14 12:26:14;;;;;;;;;;;;;;;18.65;62.67;100776.84;4965640;28;119895;-74
2022/10/14 12:28:39;;;;;;;;;;;;;;;18.71;62.67;100777.63;4966027;28;119621;-73
2022/10/14 12:31:25;;;;;;;;;;;;;;;18.77;62.56;100778.38;4965330;28;120286;-74
2022/10/14 12:34:12;;;;;;;;;;;;;;;18.87;62.36;100778.88;4955508;28;120216;-74
2022/10/14 12:36:38;;;;;;;;;;;;;;;18.92;62.41;100764.22;4966301;28;119991;-74
2022/10/14 12:39:16;;;;;;;;;;;;;;;18.96;62.14;100765.50;4966193;28;119557;-74
2022/10/14 12:41:59;;;;;;;;;;;;;;;18.94;61.98;100764.50;4965077;28;119905;-73
2022/10/14 12:44:34;;;;;;;;;;;;;;;18.96;61.89;100759.94;4965619;28;119558;-74
2022/10/14 12:46:59;;;;;;;;;;;;;;;19.01;62.10;100759.16;4969548;28;119875;-73
2022/10/14 12:49:25;;;;;;;;;;;;;;;19.02;60.78;100762.72;4967795;28;119513;-73
2022/10/14 12:51:52;;;;;;;;;;;;;;;19.03;61.45;100753.09;4945035;28;122111;-73